DAL983 KMCO-KMIA
Flight info
| Callsign | DAL983 |
|---|---|
| Flight time | 0h 44m |
| Altitude | 23000 |
| Route | DDANY3 DDANY CSTAL3 |
| Aircraft | A359/H-SDE2E3GHIJ3J4J5LM1ORWXY/LB1D1 |
Departure
| Time | 2026-04-25 22:10 |
|---|---|
| Airport | Orlando International Airport (KMCO) |
Arrival
| Time | 2026-04-25 22:55 |
|---|---|
| Airport | Miami International Airport (KMIA) |
| Time | Latitude | Longitude | Altitude | Speed | Heading |
|---|---|---|---|---|---|
| 2026-04-25 21:45 | 28.42809 | -81.30023 | 114 ft | 0 kts | 307° |
| 2026-04-25 21:49 | 28.42804 | -81.30016 | 107 ft | 2 kts | 307° |
| 2026-04-25 21:49 | 28.42797 | -81.30006 | 107 ft | 2 kts | 307° |
| 2026-04-25 21:49 | 28.42797 | -81.30005 | 107 ft | 0 kts | 307° |
| 2026-04-25 22:02 | 28.42790 | -81.29996 | 109 ft | 4 kts | 297° |
| 2026-04-25 22:02 | 28.42783 | -81.29970 | 109 ft | 4 kts | 284° |
| 2026-04-25 22:02 | 28.42776 | -81.29941 | 108 ft | 4 kts | 280° |
| 2026-04-25 22:03 | 28.42773 | -81.29913 | 107 ft | 4 kts | 290° |
| 2026-04-25 22:03 | 28.42764 | -81.29896 | 107 ft | 4 kts | 320° |
| 2026-04-25 22:03 | 28.42744 | -81.29884 | 107 ft | 4 kts | 353° |
| 2026-04-25 22:03 | 28.42718 | -81.29882 | 108 ft | 3 kts | 360° |
| 2026-04-25 22:04 | 28.42716 | -81.29882 | 108 ft | 5 kts | 360° |
| 2026-04-25 22:08 | 28.42740 | -81.29882 | 109 ft | 10 kts | 0° |
| 2026-04-25 22:08 | 28.42819 | -81.29883 | 109 ft | 13 kts | 359° |
| 2026-04-25 22:08 | 28.42895 | -81.29867 | 109 ft | 7 kts | 47° |
| 2026-04-25 22:08 | 28.42910 | -81.29815 | 109 ft | 7 kts | 84° |
| 2026-04-25 22:09 | 28.42913 | -81.29752 | 110 ft | 9 kts | 88° |
| 2026-04-25 22:09 | 28.42905 | -81.29678 | 110 ft | 10 kts | 101° |
| 2026-04-25 22:09 | 28.42875 | -81.29594 | 111 ft | 12 kts | 139° |
| 2026-04-25 22:09 | 28.42784 | -81.29579 | 109 ft | 32 kts | 178° |
| 2026-04-25 22:10 | 28.42297 | -81.29577 | 106 ft | 110 kts | 180° |
| 2026-04-25 22:10 | 28.41305 | -81.29569 | 124 ft | 172 kts | 181° |
| 2026-04-25 22:10 | 28.40008 | -81.29524 | 547 ft | 202 kts | 178° |
| 2026-04-25 22:10 | 28.38507 | -81.29351 | 1094 ft | 231 kts | 166° |
| 2026-04-25 22:11 | 28.37001 | -81.28557 | 1868 ft | 248 kts | 143° |
| 2026-04-25 22:11 | 28.35739 | -81.27214 | 2723 ft | 249 kts | 135° |
| 2026-04-25 22:11 | 28.34739 | -81.25583 | 3256 ft | 259 kts | 110° |
| 2026-04-25 22:11 | 28.34311 | -81.23624 | 3827 ft | 267 kts | 102° |
| 2026-04-25 22:12 | 28.33965 | -81.21479 | 4444 ft | 274 kts | 102° |
| 2026-04-25 22:12 | 28.33613 | -81.19326 | 5031 ft | 280 kts | 102° |
| 2026-04-25 22:12 | 28.33251 | -81.17144 | 5739 ft | 282 kts | 102° |
| 2026-04-25 22:12 | 28.33007 | -81.15689 | 6191 ft | 285 kts | 102° |
| 2026-04-25 22:13 | 28.32502 | -81.12706 | 7002 ft | 290 kts | 102° |
| 2026-04-25 22:13 | 28.32116 | -81.10438 | 7620 ft | 294 kts | 102° |
| 2026-04-25 22:13 | 28.31726 | -81.08155 | 8294 ft | 296 kts | 102° |
| 2026-04-25 22:13 | 28.31332 | -81.05857 | 8930 ft | 299 kts | 101° |
| 2026-04-25 22:14 | 28.30933 | -81.03521 | 9571 ft | 303 kts | 101° |
| 2026-04-25 22:14 | 28.30529 | -81.01164 | 10172 ft | 307 kts | 101° |
| 2026-04-25 22:14 | 28.30110 | -80.98722 | 10480 ft | 323 kts | 101° |
| 2026-04-25 22:14 | 28.29671 | -80.96164 | 10743 ft | 338 kts | 101° |
| 2026-04-25 22:15 | 28.29212 | -80.93491 | 11009 ft | 352 kts | 101° |
| 2026-04-25 22:15 | 28.28733 | -80.90718 | 11315 ft | 362 kts | 101° |
| 2026-04-25 22:15 | 28.28245 | -80.87891 | 11739 ft | 368 kts | 101° |
| 2026-04-25 22:16 | 28.26602 | -80.82331 | 12692 ft | 376 kts | 112° |
| 2026-04-25 22:16 | 28.25603 | -80.79584 | 13169 ft | 379 kts | 112° |
| 2026-04-25 22:16 | 28.24594 | -80.76803 | 13663 ft | 382 kts | 112° |
| 2026-04-25 22:16 | 28.23583 | -80.74006 | 14088 ft | 385 kts | 112° |
| 2026-04-25 22:17 | 28.22506 | -80.71214 | 14492 ft | 388 kts | 117° |
| 2026-04-25 22:17 | 28.20982 | -80.68740 | 14905 ft | 390 kts | 134° |
| 2026-04-25 22:17 | 28.18847 | -80.66853 | 15335 ft | 391 kts | 152° |
| 2026-04-25 22:17 | 28.16317 | -80.65732 | 15784 ft | 391 kts | 166° |
| 2026-04-25 22:18 | 28.13675 | -80.64941 | 16198 ft | 394 kts | 168° |
| 2026-04-25 22:18 | 28.11007 | -80.64172 | 16607 ft | 397 kts | 167° |
| 2026-04-25 22:18 | 28.08324 | -80.63388 | 17039 ft | 400 kts | 167° |
| 2026-04-25 22:18 | 28.05616 | -80.62588 | 17465 ft | 402 kts | 167° |
| 2026-04-25 22:19 | 28.02897 | -80.61779 | 17888 ft | 405 kts | 167° |
| 2026-04-25 22:19 | 28.00165 | -80.60964 | 18277 ft | 408 kts | 167° |
| 2026-04-25 22:19 | 27.97410 | -80.60141 | 18644 ft | 410 kts | 167° |
| 2026-04-25 22:19 | 27.94637 | -80.59312 | 19008 ft | 412 kts | 167° |
| 2026-04-25 22:20 | 27.91858 | -80.58481 | 19391 ft | 414 kts | 167° |
| 2026-04-25 22:20 | 27.89067 | -80.57646 | 19774 ft | 416 kts | 167° |
| 2026-04-25 22:20 | 27.86257 | -80.56807 | 20154 ft | 418 kts | 167° |
| 2026-04-25 22:20 | 27.83435 | -80.55965 | 20518 ft | 420 kts | 167° |
| 2026-04-25 22:21 | 27.80605 | -80.55120 | 20871 ft | 422 kts | 167° |
| 2026-04-25 22:21 | 27.77758 | -80.54271 | 21217 ft | 425 kts | 167° |
| 2026-04-25 22:21 | 27.74876 | -80.53413 | 21386 ft | 431 kts | 167° |
| 2026-04-25 22:21 | 27.71952 | -80.52542 | 21544 ft | 438 kts | 167° |
| 2026-04-25 22:22 | 27.68982 | -80.51658 | 21692 ft | 445 kts | 167° |
| 2026-04-25 22:22 | 27.65963 | -80.50760 | 21822 ft | 451 kts | 167° |
| 2026-04-25 22:22 | 27.62934 | -80.49749 | 21958 ft | 457 kts | 162° |
| 2026-04-25 22:22 | 27.59928 | -80.48517 | 22074 ft | 463 kts | 161° |
| 2026-04-25 22:23 | 27.56889 | -80.47256 | 22245 ft | 467 kts | 162° |
| 2026-04-25 22:23 | 27.53819 | -80.46002 | 22452 ft | 470 kts | 162° |
| 2026-04-25 22:23 | 27.50737 | -80.44761 | 22704 ft | 471 kts | 162° |
| 2026-04-25 22:23 | 27.48776 | -80.43976 | 22838 ft | 472 kts | 162° |
| 2026-04-25 22:24 | 27.46239 | -80.42965 | 22920 ft | 473 kts | 162° |
| 2026-04-25 22:24 | 27.43073 | -80.41708 | 22926 ft | 473 kts | 162° |
| 2026-04-25 22:24 | 27.39968 | -80.40479 | 22925 ft | 473 kts | 162° |
| 2026-04-25 22:24 | 27.36894 | -80.39263 | 22925 ft | 474 kts | 162° |
| 2026-04-25 22:25 | 27.33784 | -80.38034 | 22926 ft | 473 kts | 162° |
| 2026-04-25 22:25 | 27.30678 | -80.36808 | 22927 ft | 473 kts | 162° |
| 2026-04-25 22:25 | 27.27566 | -80.35580 | 22927 ft | 473 kts | 162° |
| 2026-04-25 22:25 | 27.24457 | -80.34355 | 22927 ft | 473 kts | 162° |
| 2026-04-25 22:26 | 27.21344 | -80.33129 | 22924 ft | 473 kts | 162° |
| 2026-04-25 22:26 | 27.18232 | -80.31914 | 22926 ft | 473 kts | 163° |
| 2026-04-25 22:26 | 27.15124 | -80.30707 | 22925 ft | 473 kts | 163° |
| 2026-04-25 22:26 | 27.12011 | -80.29499 | 22925 ft | 473 kts | 163° |
| 2026-04-25 22:27 | 27.08896 | -80.28291 | 22923 ft | 473 kts | 163° |
| 2026-04-25 22:27 | 27.05789 | -80.27085 | 22890 ft | 473 kts | 163° |
| 2026-04-25 22:27 | 27.02679 | -80.25880 | 22641 ft | 472 kts | 163° |
| 2026-04-25 22:27 | 26.99580 | -80.24679 | 22381 ft | 471 kts | 163° |
| 2026-04-25 22:28 | 26.96485 | -80.23480 | 22125 ft | 469 kts | 163° |
| 2026-04-25 22:28 | 26.93414 | -80.22291 | 21875 ft | 468 kts | 163° |
| 2026-04-25 22:28 | 26.90334 | -80.21099 | 21430 ft | 466 kts | 163° |
| 2026-04-25 22:28 | 26.88318 | -80.20320 | 21033 ft | 463 kts | 163° |
| 2026-04-25 22:29 | 26.85268 | -80.19144 | 20415 ft | 459 kts | 163° |
| 2026-04-25 22:29 | 26.82248 | -80.18017 | 19780 ft | 455 kts | 163° |
| 2026-04-25 22:29 | 26.79248 | -80.16911 | 19337 ft | 450 kts | 163° |
| 2026-04-25 22:30 | 26.73310 | -80.14717 | 19070 ft | 449 kts | 163° |
| 2026-04-25 22:30 | 26.70350 | -80.13626 | 18789 ft | 448 kts | 164° |
| 2026-04-25 22:30 | 26.67351 | -80.12726 | 18132 ft | 444 kts | 169° |
| 2026-04-25 22:30 | 26.65358 | -80.12221 | 17686 ft | 441 kts | 169° |
| 2026-04-25 22:31 | 26.61391 | -80.11213 | 16955 ft | 433 kts | 169° |
| 2026-04-25 22:31 | 26.58465 | -80.10455 | 16431 ft | 430 kts | 169° |
| 2026-04-25 22:31 | 26.55549 | -80.09739 | 15893 ft | 428 kts | 169° |
| 2026-04-25 22:31 | 26.52650 | -80.09034 | 15360 ft | 424 kts | 169° |
| 2026-04-25 22:32 | 26.49779 | -80.08329 | 14841 ft | 421 kts | 169° |
| 2026-04-25 22:32 | 26.46928 | -80.07624 | 14355 ft | 418 kts | 169° |
| 2026-04-25 22:32 | 26.44104 | -80.06942 | 13927 ft | 411 kts | 171° |
| 2026-04-25 22:32 | 26.41341 | -80.06361 | 13656 ft | 397 kts | 172° |
| 2026-04-25 22:33 | 26.38673 | -80.05813 | 13367 ft | 383 kts | 171° |
| 2026-04-25 22:33 | 26.36115 | -80.05169 | 13098 ft | 371 kts | 168° |
| 2026-04-25 22:33 | 26.33650 | -80.04469 | 12838 ft | 359 kts | 167° |
| 2026-04-25 22:33 | 26.31270 | -80.03796 | 12613 ft | 347 kts | 168° |
| 2026-04-25 22:34 | 26.28967 | -80.03154 | 12396 ft | 336 kts | 168° |
| 2026-04-25 22:34 | 26.26730 | -80.02546 | 12156 ft | 325 kts | 169° |
| 2026-04-25 22:34 | 26.24536 | -80.02402 | 11999 ft | 309 kts | 189° |
| 2026-04-25 22:34 | 26.22439 | -80.02810 | 11931 ft | 305 kts | 194° |
| 2026-04-25 22:35 | 26.20361 | -80.03299 | 11813 ft | 306 kts | 194° |
| 2026-04-25 22:35 | 26.18280 | -80.03789 | 11692 ft | 305 kts | 194° |
| 2026-04-25 22:35 | 26.16202 | -80.04272 | 11565 ft | 305 kts | 194° |
| 2026-04-25 22:35 | 26.14130 | -80.04750 | 11430 ft | 304 kts | 194° |
| 2026-04-25 22:36 | 26.12056 | -80.05226 | 11304 ft | 303 kts | 194° |
| 2026-04-25 22:36 | 26.09992 | -80.05698 | 11176 ft | 303 kts | 194° |
| 2026-04-25 22:36 | 26.07927 | -80.06170 | 11053 ft | 302 kts | 194° |
| 2026-04-25 22:36 | 26.05895 | -80.06642 | 10948 ft | 302 kts | 195° |
| 2026-04-25 22:37 | 26.03858 | -80.07168 | 10742 ft | 300 kts | 195° |
| 2026-04-25 22:37 | 26.01828 | -80.07707 | 10566 ft | 299 kts | 195° |
| 2026-04-25 22:37 | 25.99801 | -80.08242 | 10403 ft | 299 kts | 195° |
| 2026-04-25 22:37 | 25.97783 | -80.08771 | 10237 ft | 298 kts | 195° |
| 2026-04-25 22:38 | 25.95765 | -80.09297 | 10069 ft | 297 kts | 195° |
| 2026-04-25 22:38 | 25.93757 | -80.09820 | 9910 ft | 296 kts | 195° |
| 2026-04-25 22:38 | 25.91800 | -80.10502 | 9709 ft | 293 kts | 206° |
| 2026-04-25 22:38 | 25.89971 | -80.11497 | 9556 ft | 292 kts | 210° |
| 2026-04-25 22:39 | 25.88179 | -80.12544 | 9400 ft | 291 kts | 210° |
| 2026-04-25 22:39 | 25.86390 | -80.13589 | 9234 ft | 290 kts | 210° |
| 2026-04-25 22:39 | 25.84598 | -80.14632 | 9068 ft | 290 kts | 210° |
| 2026-04-25 22:39 | 25.82814 | -80.15667 | 8906 ft | 289 kts | 210° |
| 2026-04-25 22:40 | 25.81031 | -80.16699 | 8748 ft | 288 kts | 209° |
| 2026-04-25 22:40 | 25.79254 | -80.17726 | 8589 ft | 287 kts | 209° |
| 2026-04-25 22:40 | 25.77481 | -80.18749 | 8431 ft | 287 kts | 209° |
| 2026-04-25 22:40 | 25.75715 | -80.19768 | 8268 ft | 286 kts | 209° |
| 2026-04-25 22:41 | 25.73998 | -80.20813 | 8106 ft | 285 kts | 214° |
| 2026-04-25 22:41 | 25.72599 | -80.22326 | 7991 ft | 281 kts | 239° |
| 2026-04-25 22:41 | 25.71864 | -80.24338 | 7734 ft | 278 kts | 257° |
| 2026-04-25 22:41 | 25.71446 | -80.26397 | 7350 ft | 276 kts | 259° |
| 2026-04-25 22:42 | 25.71176 | -80.28526 | 7026 ft | 275 kts | 267° |
| 2026-04-25 22:42 | 25.71078 | -80.30609 | 6820 ft | 271 kts | 268° |
| 2026-04-25 22:42 | 25.70995 | -80.32691 | 6636 ft | 272 kts | 268° |
| 2026-04-25 22:42 | 25.70906 | -80.34796 | 6347 ft | 274 kts | 268° |
| 2026-04-25 22:43 | 25.70812 | -80.36902 | 6018 ft | 273 kts | 268° |
| 2026-04-25 22:43 | 25.70716 | -80.39003 | 5689 ft | 273 kts | 268° |
| 2026-04-25 22:43 | 25.70618 | -80.41099 | 5382 ft | 272 kts | 267° |
| 2026-04-25 22:43 | 25.70520 | -80.43191 | 5083 ft | 271 kts | 267° |
| 2026-04-25 22:44 | 25.70772 | -80.45248 | 4686 ft | 272 kts | 290° |
| 2026-04-25 22:44 | 25.71600 | -80.47120 | 4298 ft | 270 kts | 301° |
| 2026-04-25 22:44 | 25.72652 | -80.48843 | 3879 ft | 269 kts | 306° |
| 2026-04-25 22:44 | 25.73637 | -80.50637 | 3400 ft | 270 kts | 290° |
| 2026-04-25 22:45 | 25.73885 | -80.52642 | 3076 ft | 266 kts | 263° |
| 2026-04-25 22:45 | 25.73361 | -80.54591 | 2990 ft | 264 kts | 245° |
| 2026-04-25 22:45 | 25.72606 | -80.56403 | 2981 ft | 251 kts | 243° |
| 2026-04-25 22:45 | 25.71874 | -80.58087 | 2981 ft | 234 kts | 243° |
| 2026-04-25 22:46 | 25.71181 | -80.59670 | 2983 ft | 223 kts | 243° |
| 2026-04-25 22:46 | 25.70516 | -80.61224 | 2982 ft | 223 kts | 246° |
| 2026-04-25 22:46 | 25.70297 | -80.62873 | 2983 ft | 211 kts | 277° |
| 2026-04-25 22:46 | 25.70893 | -80.64268 | 2997 ft | 197 kts | 313° |
| 2026-04-25 22:47 | 25.72072 | -80.64980 | 2994 ft | 196 kts | 349° |
| 2026-04-25 22:47 | 25.73395 | -80.64787 | 2991 ft | 194 kts | 26° |
| 2026-04-25 22:47 | 25.74430 | -80.63852 | 2989 ft | 192 kts | 49° |
| 2026-04-25 22:47 | 25.75290 | -80.62714 | 2989 ft | 192 kts | 53° |
| 2026-04-25 22:48 | 25.76122 | -80.61558 | 2989 ft | 192 kts | 53° |
| 2026-04-25 22:48 | 25.76924 | -80.60371 | 2993 ft | 192 kts | 60° |
| 2026-04-25 22:48 | 25.77388 | -80.58999 | 3000 ft | 190 kts | 79° |
| 2026-04-25 22:48 | 25.77549 | -80.57546 | 2990 ft | 189 kts | 88° |
| 2026-04-25 22:49 | 25.77609 | -80.56087 | 2988 ft | 189 kts | 89° |
| 2026-04-25 22:49 | 25.77665 | -80.54627 | 2991 ft | 190 kts | 89° |
| 2026-04-25 22:49 | 25.77723 | -80.53162 | 2993 ft | 189 kts | 89° |
| 2026-04-25 22:49 | 25.77778 | -80.51707 | 2995 ft | 188 kts | 88° |
| 2026-04-25 22:50 | 25.77831 | -80.50317 | 2977 ft | 170 kts | 89° |
| 2026-04-25 22:50 | 25.77877 | -80.49075 | 2970 ft | 152 kts | 89° |
| 2026-04-25 22:50 | 25.77920 | -80.47964 | 2910 ft | 141 kts | 89° |
| 2026-04-25 22:50 | 25.77967 | -80.46887 | 2761 ft | 139 kts | 88° |
| 2026-04-25 22:51 | 25.78015 | -80.45810 | 2563 ft | 139 kts | 89° |
| 2026-04-25 22:51 | 25.78059 | -80.44747 | 2371 ft | 137 kts | 90° |
| 2026-04-25 22:51 | 25.78103 | -80.43696 | 2193 ft | 136 kts | 89° |
| 2026-04-25 22:51 | 25.78147 | -80.42649 | 2013 ft | 134 kts | 90° |
| 2026-04-25 22:52 | 25.78189 | -80.41619 | 1836 ft | 133 kts | 89° |
| 2026-04-25 22:52 | 25.78232 | -80.40597 | 1672 ft | 132 kts | 90° |
| 2026-04-25 22:52 | 25.78274 | -80.39589 | 1482 ft | 129 kts | 89° |
| 2026-04-25 22:52 | 25.78301 | -80.38936 | 1372 ft | 128 kts | 89° |
| 2026-04-25 22:53 | 25.78355 | -80.37617 | 1158 ft | 128 kts | 88° |
| 2026-04-25 22:53 | 25.78396 | -80.36615 | 990 ft | 130 kts | 88° |
| 2026-04-25 22:53 | 25.78438 | -80.35625 | 821 ft | 128 kts | 90° |
| 2026-04-25 22:53 | 25.78478 | -80.34635 | 666 ft | 127 kts | 89° |
| 2026-04-25 22:54 | 25.78520 | -80.33647 | 509 ft | 130 kts | 90° |
| 2026-04-25 22:54 | 25.78560 | -80.32658 | 335 ft | 124 kts | 88° |
| 2026-04-25 22:54 | 25.78598 | -80.31722 | 174 ft | 122 kts | 90° |
| 2026-04-25 22:54 | 25.78635 | -80.30772 | 41 ft | 123 kts | 89° |
| 2026-04-25 22:55 | 25.78670 | -80.29897 | 22 ft | 90 kts | 85° |
| 2026-04-25 22:55 | 25.78698 | -80.29393 | 24 ft | 53 kts | 88° |
| 2026-04-25 22:55 | 25.78710 | -80.29023 | 27 ft | 45 kts | 87° |
| 2026-04-25 22:55 | 25.78764 | -80.28744 | 27 ft | 16 kts | 57° |
| 2026-04-25 22:56 | 25.78837 | -80.28656 | 24 ft | 17 kts | 42° |
| 2026-04-25 22:56 | 25.78929 | -80.28580 | 27 ft | 17 kts | 35° |
| 2026-04-25 22:56 | 25.79033 | -80.28497 | 25 ft | 20 kts | 36° |
| 2026-04-25 22:56 | 25.79156 | -80.28415 | 26 ft | 21 kts | 23° |
| 2026-04-25 22:57 | 25.79275 | -80.28383 | 28 ft | 10 kts | 339° |
| 2026-04-25 22:57 | 25.79306 | -80.28428 | 30 ft | 7 kts | 287° |
| 2026-04-25 22:57 | 25.79323 | -80.28488 | 30 ft | 10 kts | 295° |
| 2026-04-25 22:57 | 25.79362 | -80.28512 | 30 ft | 5 kts | 13° |
| 2026-04-25 22:58 | 25.79396 | -80.28497 | 28 ft | 3 kts | 47° |
| 2026-04-25 22:58 | 25.79404 | -80.28479 | 28 ft | 3 kts | 58° |
| 2026-04-25 22:58 | 25.79419 | -80.28460 | 30 ft | 0 kts | 43° |
| 2026-04-25 22:59 | 25.79420 | -80.28459 | 30 ft | 0 kts | 44° |